.
WxDataArchive / Data Records for 2007-02-06
2007-02-05 February 2007 2007-02-07

Data Records for Tuesday, 06 February 2007

Time	Temp	Chill	HIndex	Humid	Dewpt	 Wind 	HiWind	WindDir	Rain 	Barom 
-----	----	-----	------	-----	-----	------	------	-------	-----	----- 
00:00	-0.2	-0.2	-0.2	57	-11.8	0	2	248	0.00	30.474 
00:05	-0.2	-0.2	-0.2	57	-11.8	0	3	248	0.00	30.474 
00:10	-0.2	-0.2	-0.2	57	-11.8	0	2	248	0.00	30.474 
00:15	-0.2	-0.2	-0.2	56	-12.1	0	1	248	0.00	30.469 
00:20	-0.2	-0.2	-0.2	56	-12.1	1	3	248	0.00	30.469 
00:25	0.0	0.0	0.0	56	-11.9	1	3	248	0.00	30.469 
00:30	0.0	0.0	0.0	55	-12.3	0	2	248	0.00	30.471 
00:35	0.0	0.0	0.0	55	-12.3	0	5	248	0.00	30.471 
00:40	-0.2	-0.2	-0.2	55	-12.5	0	2	248	0.00	30.471 
00:45	-0.2	-0.2	-0.2	55	-12.5	0	2	248	0.00	30.470 
00:50	-0.2	-0.2	-0.2	55	-12.5	0	3	248	0.00	30.470 
00:55	-0.4	-0.4	-0.4	55	-12.7	1	3	248	0.00	30.470 
01:00	-0.4	-0.4	-0.4	55	-12.7	1	4	270	0.00	30.470 
01:05	-0.4	-0.4	-0.4	55	-12.7	0	3	248	0.00	30.470 
01:10	-0.4	-0.4	-0.4	55	-12.7	0	2	248	0.00	30.470 
01:15	-0.4	-0.4	-0.4	55	-12.7	1	3	248	0.00	30.466 
01:20	-0.4	-0.4	-0.4	55	-12.7	1	4	248	0.00	30.466 
01:25	-0.6	-0.6	-0.6	55	-12.8	0	2	248	0.00	30.466 
01:30	-0.6	-0.6	-0.6	55	-12.8	0	2	248	0.00	30.464 
01:35	-0.8	-0.8	-0.8	55	-13.0	0	2	248	0.00	30.464 
01:40	-0.8	-0.8	-0.8	55	-13.0	0	3	248	0.00	30.464 
01:45	-0.8	-0.8	-0.8	55	-13.0	0	2	248	0.00	30.457 
01:50	-1.0	-1.0	-1.0	55	-13.2	0	2	248	0.00	30.457 
01:55	-1.0	-1.0	-1.0	56	-12.9	0	3	248	0.00	30.457 
02:00	-1.0	-1.0	-1.0	56	-12.9	0	2	248	0.00	30.453 
02:05	-1.2	-1.2	-1.2	56	-13.1	0	3	248	0.00	30.453 
02:10	-1.2	-1.2	-1.2	56	-13.1	1	4	248	0.00	30.453 
02:15	-1.4	-1.4	-1.4	56	-13.2	1	2	248	0.00	30.453 
02:20	-1.4	-1.4	-1.4	56	-13.2	0	2	248	0.00	30.453 
02:25	-1.4	-1.4	-1.4	56	-13.2	1	4	248	0.00	30.453 
02:30	-1.6	-1.6	-1.6	56	-13.4	0	2	225	0.00	30.455 
02:35	-1.6	-1.6	-1.6	57	-13.1	0	2	248	0.00	30.455 
02:40	-1.8	-1.8	-1.8	57	-13.3	0	4	248	0.00	30.455 
02:45	-1.8	-1.8	-1.8	57	-13.3	0	3	248	0.00	30.455 
02:50	-2.0	-2.0	-2.0	58	-13.1	0	3	248	0.00	30.455 
02:55	-2.0	-2.0	-2.0	58	-13.1	0	3	248	0.00	30.455 
03:00	-2.2	-2.2	-2.2	58	-13.3	0	2	248	0.00	30.452 
03:05	-2.2	-2.2	-2.2	58	-13.3	0	1	248	0.00	30.452 
03:10	-2.2	-2.2	-2.2	58	-13.3	0	2	248	0.00	30.452 
03:15	-2.4	-2.4	-2.4	58	-13.5	0	2	248	0.00	30.450 
03:20	-2.4	-2.4	-2.4	58	-13.5	0	2	248	0.00	30.450 
03:25	-2.4	-2.4	-2.4	58	-13.5	1	3	248	0.00	30.450 
03:30	-2.6	-2.6	-2.6	58	-13.7	1	4	248	0.00	30.443 
03:35	-2.6	-2.6	-2.6	58	-13.7	0	2	248	0.00	30.443 
03:40	-2.6	-2.6	-2.6	59	-13.3	1	3	248	0.00	30.443 
03:45	-2.8	-2.8	-2.8	59	-13.5	0	1	248	0.00	30.438 
03:50	-2.8	-2.8	-2.8	59	-13.5	0	3	248	0.00	30.438 
03:55	-3.1	-3.1	-3.1	60	-13.5	0	2	248	0.00	30.438 
04:00	-3.1	-3.1	-3.1	60	-13.5	0	2	248	0.00	30.436 
04:05	-3.3	-3.3	-3.3	61	-13.3	1	4	248	0.00	30.436 
04:10	-3.3	-3.3	-3.3	61	-13.3	1	3	248	0.00	30.436 
04:15	-3.3	-3.3	-3.3	61	-13.3	1	4	248	0.00	30.432 
04:20	-3.5	-3.5	-3.5	61	-13.5	0	3	248	0.00	30.432 
04:25	-3.5	-3.5	-3.5	61	-13.5	0	2	248	0.00	30.432 
04:30	-3.5	-3.5	-3.5	62	-13.2	0	2	248	0.00	30.426 
04:35	-3.7	-3.7	-3.7	62	-13.4	0	2	225	0.00	30.426 
04:40	-3.7	-3.7	-3.7	62	-13.4	0	2	248	0.00	30.426 
04:45	-3.9	-3.9	-3.9	62	-13.6	0	2	248	0.00	30.430 
04:50	-3.9	-3.9	-3.9	62	-13.6	0	3	248	0.00	30.430 
04:55	-3.9	-3.9	-3.9	62	-13.6	1	3	248	0.00	30.430 
05:00	-3.9	-3.9	-3.9	62	-13.6	0	2	248	0.00	30.427 
05:05	-3.9	-3.9	-3.9	62	-13.6	0	1	248	0.00	30.427 
05:10	-3.9	-3.9	-3.9	63	-13.3	0	2	248	0.00	30.427 
05:15	-3.9	-3.9	-3.9	63	-13.3	1	4	248	0.00	30.427 
05:20	-3.9	-3.9	-3.9	63	-13.3	1	4	248	0.00	30.427 
05:25	-3.9	-3.9	-3.9	63	-13.3	0	2	248	0.00	30.427 
05:30	-3.9	-3.9	-3.9	63	-13.3	0	3	248	0.00	30.430 
05:35	-3.9	-3.9	-3.9	63	-13.3	0	3	225	0.00	30.430 
05:40	-3.9	-3.9	-3.9	63	-13.3	1	3	248	0.00	30.430 
05:45	-3.9	-3.9	-3.9	63	-13.3	0	3	248	0.00	30.430 
05:50	-3.9	-3.9	-3.9	63	-13.3	1	4	248	0.00	30.430 
05:55	-3.9	-3.9	-3.9	63	-13.3	0	4	248	0.00	30.430 
06:00	-3.9	-3.9	-3.9	63	-13.3	1	5	248	0.00	30.434 
06:05	-3.9	-3.9	-3.9	63	-13.3	1	3	248	0.00	30.434 
06:10	-3.9	-3.9	-3.9	63	-13.3	1	4	248	0.00	30.434 
06:15	-3.9	-3.9	-3.9	63	-13.3	1	4	248	0.00	30.427 
06:20	-3.9	-3.9	-3.9	63	-13.3	1	3	248	0.00	30.427 
06:25	-3.9	-3.9	-3.9	63	-13.3	0	3	248	0.00	30.427 
06:30	-4.1	-4.1	-4.1	64	-13.2	0	3	248	0.00	30.418 
06:35	-4.1	-4.1	-4.1	64	-13.2	0	1	248	0.00	30.418 
06:40	-4.3	-4.3	-4.3	64	-13.3	0	1	248	0.00	30.418 
06:45	-4.3	-4.3	-4.3	64	-13.3	0	2	248	0.00	30.417 
06:50	-4.3	-4.3	-4.3	64	-13.3	0	3	248	0.00	30.417 
06:55	-4.3	-4.3	-4.3	64	-13.3	1	3	248	0.00	30.417 
07:00	-4.3	-4.3	-4.3	64	-13.3	1	5	248	0.00	30.423 
07:05	-4.3	-4.3	-4.3	64	-13.3	0	1	248	0.00	30.423 
07:10	-4.3	-4.3	-4.3	64	-13.3	0	1	248	0.00	30.423 
07:15	-4.3	-4.3	-4.3	64	-13.3	0	1	248	0.00	30.415 
07:20	-4.1	-4.1	-4.1	65	-12.8	0	3	248	0.00	30.415 
07:25	-4.1	-4.1	-4.1	65	-12.8	0	1	248	0.00	30.415 
07:30	-4.1	-4.1	-4.1	65	-12.8	0	1	248	0.00	30.412 
07:35	-3.9	-3.9	-3.9	65	-12.7	0	1	248	0.00	30.412 
07:40	-3.9	-3.9	-3.9	65	-12.7	0	1	248	0.00	30.412 
07:45	-3.7	-3.7	-3.7	65	-12.5	0	2	248	0.00	30.399 
07:50	-3.5	-3.5	-3.5	64	-12.6	0	2	248	0.00	30.399 
07:55	-3.3	-3.3	-3.3	64	-12.4	0	1	248	0.00	30.399 
08:00	-3.1	-3.1	-3.1	64	-12.2	0	3	248	0.00	30.396 
08:05	-2.8	-2.8	-2.8	63	-12.2	0	3	248	0.00	30.396 
08:10	-2.6	-2.6	-2.6	63	-12.0	0	2	248	0.00	30.396 
08:15	-2.4	-2.4	-2.4	63	-11.8	0	3	248	0.00	30.383 
08:20	-2.4	-2.4	-2.4	63	-11.8	0	3	248	0.00	30.383 
08:25	-2.2	-2.2	-2.2	62	-12.0	0	2	248	0.00	30.383 
08:30	-2.0	-2.0	-2.0	62	-11.8	0	2	248	0.00	30.386 
08:35	-1.8	-1.8	-1.8	62	-11.6	0	3	248	0.00	30.386 
08:40	-1.6	-1.6	-1.6	62	-11.4	1	3	248	0.00	30.386 
08:45	-1.2	-1.2	-1.2	62	-11.0	1	4	248	0.00	30.381 
08:50	-1.0	-1.0	-1.0	62	-10.8	0	3	248	0.00	30.381 
08:55	-0.6	-0.6	-0.6	62	-10.5	0	2	248	0.00	30.381 
09:00	-0.4	-0.4	-0.4	62	-10.3	0	3	248	0.00	30.377 
09:05	-0.2	-0.2	-0.2	60	-10.7	1	5	248	0.00	30.377 
09:10	-0.2	-0.2	-0.2	59	-11.1	1	3	248	0.00	30.377 
09:15	0.0	0.0	0.0	59	-10.9	0	4	248	0.00	30.373 
09:20	0.3	0.3	0.3	59	-10.6	0	2	248	0.00	30.373 
09:25	0.5	0.5	0.5	58	-10.8	1	5	248	0.00	30.373 
09:30	0.9	0.9	0.9	57	-10.7	0	2	248	0.00	30.363 
09:35	1.1	1.1	1.1	55	-11.3	1	4	248	0.00	30.363 
09:40	1.3	1.3	1.3	54	-11.4	1	2	248	0.00	30.363 
09:45	1.5	1.5	1.5	54	-11.2	0	2	248	0.00	30.361 
09:50	1.7	1.7	1.7	54	-11.1	1	3	248	0.00	30.361 
09:55	2.0	2.0	2.0	54	-10.8	0	2	248	0.00	30.361 
10:00	2.2	2.2	2.2	55	-10.2	0	2	248	0.00	30.355 
10:05	2.4	2.4	2.4	52	-11.2	1	4	248	0.00	30.355 
10:10	2.6	2.6	2.6	53	-10.6	1	4	248	0.00	30.355 
10:15	2.8	2.8	2.8	50	-11.6	1	3	248	0.00	30.359 
10:20	2.8	2.8	2.8	51	-11.2	1	3	248	0.00	30.359 
10:25	2.8	2.8	2.8	50	-11.6	1	3	270	0.00	30.359 
10:30	3.2	3.2	3.2	51	-10.8	1	3	248	0.00	30.363 
10:35	3.4	3.4	3.4	50	-11.0	0	4	248	0.00	30.363 
10:40	3.5	3.5	3.5	48	-11.7	1	4	248	0.00	30.363 
10:45	3.5	3.5	3.5	48	-11.7	1	4	248	0.00	30.372 
10:50	3.7	3.7	3.7	48	-11.6	1	4	248	0.00	30.372 
10:55	3.7	3.7	3.7	48	-11.6	0	3	248	0.00	30.372 
11:00	3.9	3.9	3.9	48	-11.4	0	2	248	0.00	30.359 
11:05	4.1	4.1	4.1	48	-11.2	0	3	248	0.00	30.359 
11:10	4.3	4.3	4.3	48	-11.0	0	2	248	0.00	30.359 
11:15	4.5	4.5	4.5	48	-10.8	0	2	248	0.00	30.345 
11:20	4.5	4.5	4.5	46	-11.7	0	2	248	0.00	30.345 
11:25	4.7	4.7	4.7	48	-10.6	1	2	248	0.00	30.345 
11:30	4.7	4.7	4.7	46	-11.5	1	2	248	0.00	30.340 
11:35	4.7	4.7	4.7	45	-11.9	1	4	248	0.00	30.340 
11:40	4.7	4.7	4.7	45	-11.9	1	4	248	0.00	30.340 
11:45	4.8	4.8	4.8	44	-12.3	0	3	248	0.00	30.327 
11:50	5.0	5.0	5.0	46	-11.2	0	2	248	0.00	30.327 
11:55	5.4	5.4	5.4	46	-10.8	0	3	248	0.00	30.327 
12:00	5.4	5.4	5.4	47	-10.4	0	1	225	0.00	30.325 
12:05	5.8	5.8	5.8	52	-8.0	0	1	225	0.00	30.325 
12:10	5.8	5.8	5.8	52	-8.0	1	2	248	0.00	30.325 
12:15	5.6	5.6	5.6	54	-7.4	0	1	225	0.00	30.314 
12:20	5.6	5.6	5.6	57	-6.3	0	2	225	0.00	30.314 
12:25	5.4	5.4	5.4	59	-5.8	0	2	225	0.00	30.314 
12:30	5.6	5.6	5.6	61	-4.9	0	1	225	0.00	30.309 
12:35	6.0	6.0	6.0	63	-3.8	0	1	225	0.00	30.309 
12:40	6.0	6.0	6.0	62	-4.2	0	3	248	0.00	30.309 
12:45	6.0	6.0	6.0	63	-3.8	0	2	248	0.00	30.297 
12:50	6.0	6.0	6.0	66	-2.9	0	3	248	0.00	30.297 
12:55	6.0	6.0	6.0	67	-2.6	1	3	248	0.00	30.297 
13:00	6.0	6.0	6.0	69	-1.9	1	2	248	0.00	30.293 
13:05	6.1	6.1	6.1	70	-1.5	0	2	248	0.00	30.293 
13:10	6.3	6.3	6.3	70	-1.4	0	2	248	0.00	30.293 
13:15	6.5	6.5	6.5	71	-0.9	0	1	248	0.00	30.276 
13:20	6.5	6.5	6.5	71	-0.9	0	2	248	0.00	30.276 
13:25	6.3	6.3	6.3	72	-0.8	0	2	248	0.00	30.276 
13:30	6.1	6.1	6.1	72	-1.0	0	3	112	0.00	30.263 
13:35	6.0	6.0	6.0	73	-0.8	1	4	90	0.00	30.263 
13:40	6.0	6.0	6.0	73	-0.8	0	1	90	0.00	30.263 
13:45	6.1	6.1	6.1	72	-1.0	1	3	112	0.00	30.234 
13:50	6.0	6.0	6.0	71	-1.3	1	2	135	0.00	30.234 
13:55	6.0	6.0	6.0	72	-1.1	1	3	90	0.00	30.234 
14:00	5.8	5.8	5.8	73	-1.0	1	3	90	0.00	30.215 
14:05	6.0	6.0	6.0	73	-0.8	1	3	112	0.00	30.215 
14:10	6.0	6.0	6.0	73	-0.8	0	3	112	0.00	30.215 
14:15	6.1	6.1	6.1	73	-0.7	0	2	135	0.00	30.230 
14:20	6.5	6.5	6.5	74	0.0	0	2	112	0.00	30.230 
14:25	6.7	6.7	6.7	74	0.2	0	1	112	0.00	30.230 
14:30	6.7	6.7	6.7	74	0.2	0	2	112	0.00	30.217 
14:35	6.9	6.9	6.9	74	0.4	0	2	158	0.00	30.217 
14:40	6.9	6.9	6.9	74	0.4	0	2	135	0.00	30.217 
14:45	6.9	6.9	6.9	74	0.4	0	2	112	0.00	30.211 
14:50	6.9	6.9	6.9	75	0.7	0	1	112	0.00	30.211 
14:55	6.9	6.9	6.9	75	0.7	0	2	112	0.00	30.211 
15:00	6.9	6.9	6.9	75	0.7	1	2	112	0.00	30.198 
15:05	6.9	6.9	6.9	76	1.0	0	2	112	0.00	30.198 
15:10	6.9	6.9	6.9	76	1.0	1	3	112	0.00	30.198 
15:15	7.0	7.0	7.0	75	0.8	1	2	112	0.00	30.166 
15:20	7.0	7.0	7.0	75	0.8	1	2	90	0.00	30.166 
15:25	7.2	7.2	7.2	75	1.0	1	3	135	0.00	30.166 
15:30	7.0	7.0	7.0	74	0.5	1	2	135	0.00	30.167 
15:35	6.9	6.9	6.9	75	0.7	1	3	112	0.00	30.167 
15:40	7.0	7.0	7.0	75	0.8	1	3	112	0.00	30.167 
15:45	7.2	7.2	7.2	75	1.0	1	3	112	0.00	30.153 
15:50	7.0	7.0	7.0	74	0.5	1	3	112	0.00	30.153 
15:55	7.2	7.2	7.2	75	1.0	1	3	112	0.00	30.153 
16:00	7.2	7.2	7.2	75	1.0	1	3	112	0.00	30.147 
16:05	7.2	7.2	7.2	74	0.7	1	3	112	0.00	30.147 
16:10	7.2	7.2	7.2	74	0.7	1	3	90	0.00	30.147 
16:15	7.2	7.2	7.2	75	1.0	1	4	112	0.00	30.143 
16:20	7.2	7.2	7.2	74	0.7	1	3	112	0.00	30.143 
16:25	7.0	7.0	7.0	75	0.8	2	4	112	0.00	30.143 
16:30	7.0	7.0	7.0	75	0.8	2	4	90	0.00	30.135 
16:35	7.0	7.0	7.0	76	1.1	1	3	112	0.00	30.135 
16:40	7.2	7.2	7.2	76	1.3	1	4	112	0.00	30.135 
16:45	7.2	7.2	7.2	77	1.5	1	4	112	0.00	30.125 
16:50	7.2	7.2	7.2	77	1.5	2	4	90	0.00	30.125 
16:55	7.4	7.4	7.4	77	1.7	1	3	112	0.00	30.125 
17:00	7.6	7.6	7.6	77	1.9	1	4	112	0.00	30.126 
17:05	7.4	7.4	7.4	77	1.7	1	3	90	0.00	30.126 
17:10	7.4	7.4	7.4	77	1.7	0	2	90	0.00	30.126 
17:15	7.4	7.4	7.4	77	1.7	1	3	112	0.00	30.124 
17:20	7.2	7.2	7.2	77	1.5	1	3	112	0.00	30.124 
17:25	7.2	7.2	7.2	77	1.5	1	3	90	0.00	30.124 
17:30	7.2	7.2	7.2	77	1.5	1	4	90	0.00	30.123 
17:35	7.0	7.0	7.0	78	1.6	1	3	90	0.00	30.123 
17:40	7.2	7.2	7.2	78	1.8	1	4	90	0.00	30.123 
17:45	7.0	7.0	7.0	78	1.6	1	4	90	0.00	30.122 
17:50	7.0	7.0	7.0	78	1.6	1	3	112	0.00	30.122 
17:55	7.0	7.0	7.0	78	1.6	1	3	90	0.00	30.122 
18:00	7.0	7.0	7.0	79	1.9	0	2	90	0.00	30.121 
18:05	7.0	7.0	7.0	79	1.9	0	2	90	0.00	30.121 
18:10	7.0	7.0	7.0	79	1.9	0	1	90	0.00	30.121 
18:15	7.0	7.0	7.0	79	1.9	1	4	90	0.00	30.120 
18:20	7.0	7.0	7.0	79	1.9	1	3	112	0.00	30.120 
18:25	7.0	7.0	7.0	79	1.9	0	3	90	0.00	30.120 
18:30	7.0	7.0	7.0	79	1.9	1	2	112	0.00	30.117 
18:35	7.0	7.0	7.0	80	2.2	1	3	112	0.00	30.117 
18:40	7.0	7.0	7.0	80	2.2	0	1	112	0.00	30.117 
18:45	7.0	7.0	7.0	80	2.2	1	2	112	0.00	30.114 
18:50	7.0	7.0	7.0	80	2.2	0	2	112	0.00	30.114 
18:55	7.0	7.0	7.0	80	2.2	0	2	112	0.00	30.114 
19:00	7.0	7.0	7.0	80	2.2	0	1	112	0.00	30.115 
19:05	7.0	7.0	7.0	80	2.2	0	2	112	0.00	30.115 
19:10	7.0	7.0	7.0	80	2.2	0	1	90	0.00	30.115 
19:15	7.0	7.0	7.0	80	2.2	0	1	90	0.00	30.117 
19:20	7.0	7.0	7.0	80	2.2	0	1	90	0.00	30.117 
19:25	7.0	7.0	7.0	80	2.2	0	1	90	0.00	30.117 
19:30	7.0	7.0	7.0	80	2.2	0	1	90	0.00	30.106 
19:35	7.0	7.0	7.0	80	2.2	0	1	90	0.00	30.106 
19:40	6.9	6.9	6.9	80	2.1	0	1	90	0.00	30.106 
19:45	6.9	6.9	6.9	80	2.1	0	0	---	0.00	30.105 
19:50	6.9	6.9	6.9	80	2.1	0	1	90	0.00	30.105 
19:55	6.9	6.9	6.9	80	2.1	0	1	90	0.00	30.105 
20:00	6.9	6.9	6.9	80	2.1	0	1	90	0.00	30.106 
20:05	6.9	6.9	6.9	80	2.1	0	1	90	0.00	30.106 
20:10	6.9	6.9	6.9	80	2.1	0	1	90	0.00	30.106 
20:15	7.0	7.0	7.0	80	2.2	0	1	90	0.00	30.109 
20:20	7.0	7.0	7.0	80	2.2	0	1	90	0.00	30.109 
20:25	7.0	7.0	7.0	80	2.2	0	1	90	0.00	30.109 
20:30	7.0	7.0	7.0	80	2.2	0	0	---	0.00	30.103 
20:35	7.0	7.0	7.0	80	2.2	0	0	---	0.00	30.103 
20:40	7.0	7.0	7.0	80	2.2	0	1	90	0.00	30.103 
20:45	7.0	7.0	7.0	80	2.2	0	0	---	0.00	30.101 
20:50	7.0	7.0	7.0	80	2.2	0	0	---	0.00	30.101 
20:55	7.0	7.0	7.0	79	1.9	0	0	---	0.00	30.101 
21:00	7.0	7.0	7.0	80	2.2	0	0	---	0.00	30.101 
21:05	7.0	7.0	7.0	79	1.9	0	1	90	0.00	30.101 
21:10	7.0	7.0	7.0	79	1.9	0	1	90	0.00	30.101 
21:15	7.0	7.0	7.0	79	1.9	0	1	68	0.00	30.100 
21:20	7.0	7.0	7.0	79	1.9	0	2	68	0.00	30.100 
21:25	7.0	7.0	7.0	79	1.9	0	1	338	0.00	30.100 
21:30	6.9	6.9	6.9	79	1.8	0	2	22	0.00	30.101 
21:35	6.9	6.9	6.9	79	1.8	0	3	45	0.00	30.101 
21:40	6.9	6.9	6.9	79	1.8	0	2	68	0.00	30.101 
21:45	6.9	6.9	6.9	79	1.8	0	1	68	0.00	30.097 
21:50	6.7	6.7	6.7	79	1.6	0	1	68	0.00	30.097 
21:55	6.7	6.7	6.7	79	1.6	0	0	---	0.00	30.097 
22:00	6.7	6.7	6.7	79	1.6	0	1	68	0.00	30.106 
22:05	6.7	6.7	6.7	79	1.6	0	1	68	0.00	30.106 
22:10	6.7	6.7	6.7	79	1.6	0	0	---	0.00	30.106 
22:15	6.7	6.7	6.7	79	1.6	0	1	68	0.00	30.097 
22:20	6.7	6.7	6.7	79	1.6	0	0	---	0.00	30.097 
22:25	6.7	6.7	6.7	79	1.6	0	0	---	0.00	30.097 
22:30	6.7	6.7	6.7	79	1.6	0	1	68	0.00	30.099 
22:35	6.7	6.7	6.7	79	1.6	0	0	---	0.00	30.099 
22:40	6.7	6.7	6.7	79	1.6	0	1	68	0.00	30.099 
22:45	6.9	6.9	6.9	79	1.8	0	1	68	0.00	30.111 
22:50	6.9	6.9	6.9	79	1.8	0	1	68	0.00	30.111 
22:55	6.9	6.9	6.9	79	1.8	0	1	68	0.00	30.111 
23:00	6.9	6.9	6.9	79	1.8	0	1	68	0.00	30.108 
23:05	6.9	6.9	6.9	79	1.8	0	0	---	0.00	30.108 
23:10	7.0	7.0	7.0	79	1.9	0	1	68	0.00	30.108 
23:15	7.0	7.0	7.0	79	1.9	0	0	---	0.00	30.103 
23:20	7.0	7.0	7.0	78	1.6	0	1	68	0.00	30.103 
23:25	7.0	7.0	7.0	78	1.6	0	1	68	0.00	30.103 
23:30	7.2	7.2	7.2	78	1.8	0	1	68	0.00	30.111 
23:35	7.2	7.2	7.2	78	1.8	0	1	68	0.00	30.111 
23:40	7.2	7.2	7.2	79	2.1	0	0	---	0.00	30.111 
23:45	7.4	7.4	7.4	79	2.3	0	1	68	0.00	30.117 
23:50	7.4	7.4	7.4	78	2.0	0	1	68	0.00	30.117 
23:55	7.4	7.4	7.4	78	2.0	0	1	68	0.00	30.117 

CoCoRaHS
IN-AL-39
A2 Web Hosting
Creative Commons License
GoDaddy
Look for:

loaded 2017-10-18 07:06:44 • last modified 2010-11-18 10:43:29
Privacy PolicyDisclaimer
• wx.awcolley.com is powered by PmWiki v.2002016 •
• all content (unless otherwise noted) © 2017 A W Colley